Time;durP1;ratioP1;P1;durP2;ratioP2;P2;SDS_P1;SDS_P2;PMS_P1;PMS_P2;Temp;Humidity;BMP_temperature;BMP_pressure;BME280_temperature;BME280_humidity;BME280_pressure;Samples;Min_cycle;Max_cycle;Signal;HPM_P1;HPM_P2
2023/09/04 00:01:07;;;;;;;;;;;15.60;74.10;;;;;;4091236;28;20525;-84
2023/09/04 00:03:27;;;;;;;;;;;15.60;74.70;;;;;;4110807;28;20380;-82
2023/09/04 00:05:48;;;;;;;;;;;15.60;74.60;;;;;;4100952;28;19930;-84
2023/09/04 00:08:09;;;;;;;;;;;15.60;74.70;;;;;;4102517;28;19918;-85
2023/09/04 00:10:30;;;;;;;;;;;15.50;74.80;;;;;;4106108;28;19969;-85
2023/09/04 00:12:50;;;;;;;;;;;15.60;74.50;;;;;;4107254;28;20471;-84
2023/09/04 00:15:11;;;;;;;;;;;15.50;74.50;;;;;;4103294;28;19961;-84
2023/09/04 00:17:15;;;;;;;;;;;15.50;74.20;;;;;;4099187;28;19973;-85
2023/09/04 00:19:17;;;;;;;;;;;15.50;74.20;;;;;;4105874;28;19940;-85
2023/09/04 00:21:20;;;;;;;;;;;15.50;74.50;;;;;;4106167;28;20013;-84
2023/09/04 00:23:21;;;;;;;;;;;15.50;74.90;;;;;;4094755;28;19930;-85
2023/09/04 00:25:29;;;;;;;;;;;15.50;74.80;;;;;;4100406;28;19926;-83
2023/09/04 00:27:30;;;;;;;;;;;15.40;74.80;;;;;;4104504;28;19914;-84
2023/09/04 00:29:31;;;;;;;;;;;15.40;74.80;;;;;;4103800;28;19965;-84
2023/09/04 00:31:33;;;;;;;;;;;15.40;75.20;;;;;;4100073;28;19953;-85
2023/09/04 00:33:53;;;;;;;;;;;15.40;75.10;;;;;;4102728;28;20013;-84
2023/09/04 00:36:14;;;;;;;;;;;15.40;75.40;;;;;;4095104;28;20442;-84
2023/09/04 00:38:15;;;;;;;;;;;15.30;75.40;;;;;;4105338;28;20452;-85
2023/09/04 00:40:36;;;;;;;;;;;15.30;75.50;;;;;;4116537;28;20618;-84
2023/09/04 00:42:56;;;;;;;;;;;15.30;75.50;;;;;;4102963;28;19918;-84
2023/09/04 00:45:17;;;;;;;;;;;15.30;75.10;;;;;;4102817;28;20556;-85
2023/09/04 00:47:42;;;;;;;;;;;15.20;74.80;;;;;;4102904;28;20480;-85
2023/09/04 00:50:03;;;;;;;;;;;15.20;75.40;;;;;;4101358;28;20500;-83
2023/09/04 00:52:24;;;;;;;;;;;15.20;76.00;;;;;;4099867;28;20383;-85
2023/09/04 00:54:45;;;;;;;;;;;15.10;75.20;;;;;;4101478;28;20490;-84
2023/09/04 00:57:05;;;;;;;;;;;15.20;75.50;;;;;;4105228;28;20381;-84
2023/09/04 00:59:26;;;;;;;;;;;15.20;75.70;;;;;;4092866;28;20722;-85
2023/09/04 01:01:47;;;;;;;;;;;15.20;75.30;;;;;;4096495;28;20517;-85
2023/09/04 01:04:07;;;;;;;;;;;15.10;75.60;;;;;;4101585;28;20430;-85
2023/09/04 01:06:28;;;;;;;;;;;15.10;75.70;;;;;;4102684;28;20304;-83
2023/09/04 01:08:48;;;;;;;;;;;15.10;75.60;;;;;;4103527;28;20396;-84
2023/09/04 01:11:19;;;;;;;;;;;15.20;75.40;;;;;;4102919;28;20304;-84
2023/09/04 01:13:43;;;;;;;;;;;15.10;75.80;;;;;;4105248;28;19914;-84
2023/09/04 01:16:04;;;;;;;;;;;15.20;76.40;;;;;;4101665;28;20373;-85
2023/09/04 01:18:25;;;;;;;;;;;15.10;76.40;;;;;;4100950;28;20607;-84
2023/09/04 01:20:58;;;;;;;;;;;15.10;76.00;;;;;;4099311;28;20685;-84
2023/09/04 01:22:59;;;;;;;;;;;15.00;76.00;;;;;;4105416;28;19991;-84
2023/09/04 01:25:00;;;;;;;;;;;15.10;75.80;;;;;;4100637;28;19923;-84
2023/09/04 01:27:12;;;;;;;;;;;15.10;76.10;;;;;;4105072;28;19925;-84
2023/09/04 01:29:16;;;;;;;;;;;15.00;76.00;;;;;;4113933;28;19918;-84
2023/09/04 01:31:19;;;;;;;;;;;15.00;76.40;;;;;;4101919;28;20109;-84
2023/09/04 01:33:24;;;;;;;;;;;15.00;76.30;;;;;;4109939;28;20020;-84
2023/09/04 01:35:25;;;;;;;;;;;15.00;76.50;;;;;;4100743;28;19973;-84
2023/09/04 01:37:26;;;;;;;;;;;15.10;76.60;;;;;;4116351;28;19921;-85
2023/09/04 01:39:27;;;;;;;;;;;15.00;76.40;;;;;;4117862;28;20123;-84
2023/09/04 01:41:30;;;;;;;;;;;15.00;76.70;;;;;;4100408;28;19934;-83
2023/09/04 01:43:32;;;;;;;;;;;15.00;76.80;;;;;;4088658;28;19918;-84
2023/09/04 01:45:35;;;;;;;;;;;15.00;77.00;;;;;;4103263;28;19926;-85
2023/09/04 01:47:47;;;;;;;;;;;15.00;76.70;;;;;;4105944;28;19925;-85
2023/09/04 01:50:07;;;;;;;;;;;15.00;76.60;;;;;;4100517;28;19926;-84
2023/09/04 01:52:10;;;;;;;;;;;14.90;76.30;;;;;;4100736;28;19928;-84
2023/09/04 01:54:30;;;;;;;;;;;14.90;77.20;;;;;;4110398;28;19918;-85
2023/09/04 01:56:51;;;;;;;;;;;14.90;76.30;;;;;;4098686;28;20681;-85
2023/09/04 01:59:11;;;;;;;;;;;14.90;76.20;;;;;;4101835;28;20312;-84
2023/09/04 02:01:32;;;;;;;;;;;14.90;76.30;;;;;;4120850;28;20482;-84
2023/09/04 02:03:56;;;;;;;;;;;14.90;76.70;;;;;;4099690;28;20587;-84
2023/09/04 02:06:17;;;;;;;;;;;14.80;76.70;;;;;;4098980;28;19927;-82
2023/09/04 02:08:17;;;;;;;;;;;14.80;76.40;;;;;;4108499;28;19914;-84
2023/09/04 02:10:18;;;;;;;;;;;14.80;76.60;;;;;;4103536;28;19918;-82
2023/09/04 02:12:18;;;;;;;;;;;14.90;76.60;;;;;;4108714;28;20065;-83
2023/09/04 02:14:39;;;;;;;;;;;14.90;76.40;;;;;;4106991;28;20324;-84
2023/09/04 02:16:40;;;;;;;;;;;14.80;76.50;;;;;;4106010;28;19918;-84
2023/09/04 02:18:40;;;;;;;;;;;14.80;76.40;;;;;;4106937;28;19916;-84
2023/09/04 02:20:41;;;;;;;;;;;14.80;77.00;;;;;;4099513;28;19922;-84
2023/09/04 02:22:51;;;;;;;;;;;14.80;76.20;;;;;;4108975;28;19946;-85
2023/09/04 02:24:51;;;;;;;;;;;14.90;76.70;;;;;;4107169;28;19973;-84
2023/09/04 02:27:12;;;;;;;;;;;14.70;76.70;;;;;;4104435;28;19953;-83
2023/09/04 02:29:32;;;;;;;;;;;14.80;76.80;;;;;;4104163;28;20304;-84
2023/09/04 02:31:42;;;;;;;;;;;14.70;76.60;;;;;;4106336;28;19920;-84
2023/09/04 02:34:03;;;;;;;;;;;14.70;76.90;;;;;;4100220;28;19914;-84
2023/09/04 02:36:24;;;;;;;;;;;14.70;76.90;;;;;;4102768;28;19978;-85
2023/09/04 02:38:47;;;;;;;;;;;14.70;77.20;;;;;;4102338;28;20601;-85
2023/09/04 02:41:10;;;;;;;;;;;14.60;77.10;;;;;;4102476;28;20269;-85
2023/09/04 02:43:34;;;;;;;;;;;14.70;77.10;;;;;;4107347;28;20633;-85
2023/09/04 02:45:54;;;;;;;;;;;14.70;77.10;;;;;;4105038;28;19922;-85
2023/09/04 02:48:15;;;;;;;;;;;14.70;77.00;;;;;;4108720;28;21975;-84
2023/09/04 02:50:35;;;;;;;;;;;14.70;77.30;;;;;;4106167;28;20029;-84
2023/09/04 02:52:56;;;;;;;;;;;14.60;77.30;;;;;;4100406;28;20030;-85
2023/09/04 02:57:21;;;;;;;;;;;14.60;77.30;;;;;;4099813;28;19934;-83
2023/09/04 02:59:41;;;;;;;;;;;14.60;77.30;;;;;;4105935;28;19918;-84
2023/09/04 03:02:02;;;;;;;;;;;14.50;77.40;;;;;;4102749;28;19914;-83
2023/09/04 03:04:23;;;;;;;;;;;14.60;77.10;;;;;;4108055;28;19940;-83
2023/09/04 03:06:44;;;;;;;;;;;14.60;77.10;;;;;;4106741;28;20371;-83
2023/09/04 03:09:04;;;;;;;;;;;14.60;77.30;;;;;;4107492;28;19946;-85
2023/09/04 03:11:25;;;;;;;;;;;14.50;77.20;;;;;;4105280;28;20364;-85
2023/09/04 03:13:26;;;;;;;;;;;14.50;77.30;;;;;;4108469;28;19921;-84
2023/09/04 03:15:28;;;;;;;;;;;14.60;77.20;;;;;;4105059;28;20467;-85
2023/09/04 03:17:29;;;;;;;;;;;14.50;77.20;;;;;;4107326;28;19930;-84
2023/09/04 03:19:30;;;;;;;;;;;14.50;77.10;;;;;;4120573;28;19922;-83
2023/09/04 03:21:32;;;;;;;;;;;14.50;76.90;;;;;;4108421;28;20012;-86
2023/09/04 03:23:32;;;;;;;;;;;14.50;76.80;;;;;;4127886;28;20001;-87
2023/09/04 03:25:40;;;;;;;;;;;14.40;76.60;;;;;;4130304;28;19914;-85
2023/09/04 03:27:41;;;;;;;;;;;14.50;76.60;;;;;;4127372;28;19918;-85
2023/09/04 03:29:52;;;;;;;;;;;14.60;76.60;;;;;;4108838;28;19946;-86
2023/09/04 03:32:13;;;;;;;;;;;14.50;76.60;;;;;;4107053;28;19914;-85
2023/09/04 03:34:33;;;;;;;;;;;14.50;76.40;;;;;;4122270;28;19987;-82
2023/09/04 03:36:34;;;;;;;;;;;14.50;76.60;;;;;;4105033;28;19997;-84
2023/09/04 03:38:54;;;;;;;;;;;14.40;76.40;;;;;;4111839;28;19929;-83
2023/09/04 03:41:17;;;;;;;;;;;14.50;76.70;;;;;;4103852;28;21531;-84
2023/09/04 03:43:41;;;;;;;;;;;14.40;76.80;;;;;;4119374;28;19953;-83
2023/09/04 03:46:01;;;;;;;;;;;14.50;77.00;;;;;;4109415;28;19945;-83
2023/09/04 03:48:22;;;;;;;;;;;14.40;76.90;;;;;;4122129;28;19968;-83
2023/09/04 03:50:43;;;;;;;;;;;14.40;77.20;;;;;;4109664;28;20052;-83
2023/09/04 03:53:03;;;;;;;;;;;14.40;77.30;;;;;;4105827;28;19922;-83
2023/09/04 03:55:25;;;;;;;;;;;14.30;77.00;;;;;;4108796;28;19940;-82
2023/09/04 03:57:51;;;;;;;;;;;14.30;77.00;;;;;;4112151;28;19980;-84
2023/09/04 04:00:16;;;;;;;;;;;14.40;77.20;;;;;;4110365;28;19918;-83
2023/09/04 04:02:38;;;;;;;;;;;14.30;77.00;;;;;;4110553;28;20236;-83
2023/09/04 04:04:59;;;;;;;;;;;14.30;77.50;;;;;;4122424;28;20133;-83
2023/09/04 04:07:20;;;;;;;;;;;14.30;77.40;;;;;;4109130;28;19918;-83
2023/09/04 04:09:40;;;;;;;;;;;14.30;77.10;;;;;;4110104;28;19965;-83
2023/09/04 04:12:01;;;;;;;;;;;14.30;77.50;;;;;;4111912;28;19914;-84
2023/09/04 04:14:21;;;;;;;;;;;14.20;77.50;;;;;;4123280;28;19917;-83
2023/09/04 04:16:42;;;;;;;;;;;14.30;77.60;;;;;;4113963;28;19988;-84
2023/09/04 04:18:43;;;;;;;;;;;14.30;77.60;;;;;;4117588;28;20140;-84
2023/09/04 04:20:44;;;;;;;;;;;14.30;77.90;;;;;;4104199;28;19918;-84
2023/09/04 04:22:47;;;;;;;;;;;14.30;77.90;;;;;;4108733;28;21778;-84
2023/09/04 04:25:08;;;;;;;;;;;14.20;78.10;;;;;;4103643;28;19930;-84
2023/09/04 04:27:09;;;;;;;;;;;14.20;78.10;;;;;;4119216;28;19918;-84
2023/09/04 04:29:30;;;;;;;;;;;14.20;78.00;;;;;;4110920;28;19925;-84
2023/09/04 04:31:50;;;;;;;;;;;14.20;78.30;;;;;;4102767;28;19922;-85
2023/09/04 04:34:11;;;;;;;;;;;14.10;78.70;;;;;;4107144;28;19940;-85
2023/09/04 04:36:32;;;;;;;;;;;14.20;78.50;;;;;;4114184;28;19917;-84
2023/09/04 04:38:52;;;;;;;;;;;14.10;78.30;;;;;;4119305;28;19917;-84
2023/09/04 04:41:13;;;;;;;;;;;14.10;78.20;;;;;;4119334;28;20347;-84
2023/09/04 04:43:23;;;;;;;;;;;14.10;78.30;;;;;;4096595;28;19974;-84
2023/09/04 04:45:44;;;;;;;;;;;14.10;78.50;;;;;;4104951;28;20339;-85
2023/09/04 04:48:05;;;;;;;;;;;14.10;78.60;;;;;;4104486;28;20293;-85
2023/09/04 04:50:26;;;;;;;;;;;14.00;78.10;;;;;;4110461;28;20334;-83
2023/09/04 04:52:47;;;;;;;;;;;14.10;78.30;;;;;;4120995;28;19922;-84
2023/09/04 04:55:07;;;;;;;;;;;14.10;78.40;;;;;;4108032;28;20276;-83
2023/09/04 04:57:28;;;;;;;;;;;14.00;78.10;;;;;;4112441;28;20384;-84
2023/09/04 04:59:48;;;;;;;;;;;14.10;78.30;;;;;;4111196;28;20339;-85
2023/09/04 05:02:09;;;;;;;;;;;14.10;78.50;;;;;;4117567;28;20383;-83
2023/09/04 05:04:10;;;;;;;;;;;14.10;78.30;;;;;;4130363;28;19917;-84
2023/09/04 05:06:10;;;;;;;;;;;14.10;78.80;;;;;;4112724;28;19922;-83
2023/09/04 05:08:31;;;;;;;;;;;14.10;79.30;;;;;;4110404;28;19922;-84
2023/09/04 05:11:02;;;;;;;;;;;14.00;79.10;;;;;;4114465;28;20110;-85
2023/09/04 05:13:23;;;;;;;;;;;14.00;79.80;;;;;;4110507;28;20459;-85
2023/09/04 05:15:44;;;;;;;;;;;14.10;79.80;;;;;;4120437;28;20299;-83
2023/09/04 05:18:04;;;;;;;;;;;14.00;79.80;;;;;;4111259;28;20319;-84
2023/09/04 05:20:25;;;;;;;;;;;14.00;79.50;;;;;;4109818;28;20295;-84
2023/09/04 05:22:45;;;;;;;;;;;14.20;79.50;;;;;;4109872;28;19964;-84
2023/09/04 05:25:07;;;;;;;;;;;14.10;79.50;;;;;;4121081;28;19917;-84
2023/09/04 05:27:08;;;;;;;;;;;14.10;79.50;;;;;;4110604;28;20285;-84
2023/09/04 05:29:29;;;;;;;;;;;14.10;79.80;;;;;;4110356;28;19914;-84
2023/09/04 05:31:29;;;;;;;;;;;14.20;80.30;;;;;;4107760;28;19918;-84
2023/09/04 05:33:30;;;;;;;;;;;14.30;80.00;;;;;;4111791;28;19910;-84
2023/09/04 05:35:31;;;;;;;;;;;14.30;80.00;;;;;;4109822;28;20386;-84
2023/09/04 05:37:52;;;;;;;;;;;14.30;80.00;;;;;;4110571;28;20322;-84
2023/09/04 05:40:12;;;;;;;;;;;14.30;80.90;;;;;;4111032;28;20235;-84
2023/09/04 05:42:21;;;;;;;;;;;14.40;80.80;;;;;;4108184;28;19923;-84
2023/09/04 05:44:42;;;;;;;;;;;14.40;80.80;;;;;;4123441;28;20331;-85
2023/09/04 05:47:03;;;;;;;;;;;14.40;80.70;;;;;;4114054;28;20320;-86
2023/09/04 05:49:23;;;;;;;;;;;14.50;80.70;;;;;;4114270;28;20391;-85
2023/09/04 05:51:44;;;;;;;;;;;14.50;80.90;;;;;;4124721;28;20443;-86
2023/09/04 05:54:04;;;;;;;;;;;14.60;81.20;;;;;;4112534;28;20327;-87
2023/09/04 05:56:26;;;;;;;;;;;14.60;81.30;;;;;;4108527;28;19985;-86
2023/09/04 05:58:47;;;;;;;;;;;14.70;80.90;;;;;;4124550;28;19918;-85
2023/09/04 06:01:08;;;;;;;;;;;14.70;80.70;;;;;;4124044;28;20427;-85
2023/09/04 06:03:28;;;;;;;;;;;14.80;81.00;;;;;;4115313;28;20721;-85
2023/09/04 06:05:49;;;;;;;;;;;14.90;80.90;;;;;;4109323;28;20306;-85
2023/09/04 06:08:10;;;;;;;;;;;14.90;81.50;;;;;;4113377;28;19925;-85
2023/09/04 06:10:10;;;;;;;;;;;15.00;81.20;;;;;;4112515;28;19922;-86
2023/09/04 06:12:11;;;;;;;;;;;15.10;81.70;;;;;;4130545;28;19910;-85
2023/09/04 06:14:12;;;;;;;;;;;15.20;81.90;;;;;;4097096;28;19917;-85
2023/09/04 06:16:14;;;;;;;;;;;15.20;81.70;;;;;;4112426;28;20363;-85
2023/09/04 06:18:14;;;;;;;;;;;15.20;81.70;;;;;;4114252;28;19956;-86
2023/09/04 06:20:16;;;;;;;;;;;15.30;81.80;;;;;;4126444;28;20008;-86
2023/09/04 06:22:17;;;;;;;;;;;15.30;81.70;;;;;;4113222;28;19961;-85
2023/09/04 06:24:18;;;;;;;;;;;15.40;81.80;;;;;;4112810;28;20457;-85
2023/09/04 06:26:19;;;;;;;;;;;15.50;81.90;;;;;;4124080;28;19924;-86
2023/09/04 06:28:20;;;;;;;;;;;15.60;81.80;;;;;;4122660;28;20299;-85
2023/09/04 06:30:21;;;;;;;;;;;15.70;81.90;;;;;;4110099;28;20505;-85
2023/09/04 06:32:21;;;;;;;;;;;15.60;81.90;;;;;;4113590;28;20586;-85
2023/09/04 06:34:22;;;;;;;;;;;15.70;82.10;;;;;;4113398;28;19918;-86
2023/09/04 06:36:23;;;;;;;;;;;15.70;82.30;;;;;;4110429;28;20419;-85
2023/09/04 06:38:24;;;;;;;;;;;15.80;82.30;;;;;;4111400;28;20620;-86
2023/09/04 06:40:28;;;;;;;;;;;15.90;82.70;;;;;;4109599;28;19918;-86
2023/09/04 06:42:29;;;;;;;;;;;16.00;82.90;;;;;;4113048;28;19914;-85
2023/09/04 06:44:30;;;;;;;;;;;16.00;82.80;;;;;;4110839;28;19922;-86
2023/09/04 06:46:30;;;;;;;;;;;16.20;82.50;;;;;;4109455;28;20165;-86
2023/09/04 06:48:31;;;;;;;;;;;16.20;82.80;;;;;;4128168;28;19984;-86
2023/09/04 06:50:37;;;;;;;;;;;16.20;82.50;;;;;;4112387;28;19914;-86
2023/09/04 06:52:38;;;;;;;;;;;16.30;82.70;;;;;;4126967;28;19964;-86
2023/09/04 06:54:41;;;;;;;;;;;16.40;82.30;;;;;;4093344;28;19915;-85
2023/09/04 06:56:42;;;;;;;;;;;16.50;82.40;;;;;;4112627;28;19926;-86
2023/09/04 06:58:42;;;;;;;;;;;16.60;83.00;;;;;;4111605;28;19956;-85
2023/09/04 07:00:43;;;;;;;;;;;16.60;83.00;;;;;;4110814;28;19925;-85
2023/09/04 07:02:43;;;;;;;;;;;16.70;83.00;;;;;;4111412;28;19914;-86
2023/09/04 07:04:44;;;;;;;;;;;16.80;82.80;;;;;;4111425;28;19946;-85
2023/09/04 07:06:44;;;;;;;;;;;16.90;83.00;;;;;;4110029;28;19948;-87
2023/09/04 07:08:45;;;;;;;;;;;17.00;82.80;;;;;;4111026;28;20198;-86
2023/09/04 07:10:47;;;;;;;;;;;17.00;82.50;;;;;;4111915;28;19922;-85
2023/09/04 07:12:50;;;;;;;;;;;17.10;82.20;;;;;;4110007;28;19918;-85
2023/09/04 07:14:50;;;;;;;;;;;17.20;82.40;;;;;;4125974;28;19971;-86
2023/09/04 07:16:51;;;;;;;;;;;17.30;81.90;;;;;;4110366;28;20403;-86
2023/09/04 07:18:51;;;;;;;;;;;17.40;82.40;;;;;;4112728;28;19910;-86
2023/09/04 07:20:52;;;;;;;;;;;17.50;82.60;;;;;;4110766;28;20110;-86
2023/09/04 07:22:52;;;;;;;;;;;17.50;82.20;;;;;;4112887;28;19926;-86
2023/09/04 07:24:54;;;;;;;;;;;17.60;82.40;;;;;;4110255;28;19969;-85
2023/09/04 07:26:54;;;;;;;;;;;17.70;82.80;;;;;;4123682;28;19998;-87
2023/09/04 07:28:55;;;;;;;;;;;17.80;81.30;;;;;;4111233;28;19914;-86
2023/09/04 07:31:14;;;;;;;;;;;17.90;81.60;;;;;;4123117;28;19917;-86
2023/09/04 07:33:15;;;;;;;;;;;17.90;81.60;;;;;;4112381;28;19916;-86
2023/09/04 07:35:15;;;;;;;;;;;18.10;82.10;;;;;;4108016;28;19953;-85
2023/09/04 07:37:16;;;;;;;;;;;18.10;82.30;;;;;;4112444;28;19918;-86
2023/09/04 07:39:17;;;;;;;;;;;18.20;82.10;;;;;;4112627;28;19914;-86
2023/09/04 07:41:18;;;;;;;;;;;18.20;81.90;;;;;;4109110;28;20556;-86
2023/09/04 07:43:18;;;;;;;;;;;18.30;82.40;;;;;;4127536;28;20450;-86
2023/09/04 07:45:21;;;;;;;;;;;18.40;82.60;;;;;;4123937;28;20475;-86
2023/09/04 07:47:21;;;;;;;;;;;18.50;81.90;;;;;;4111821;28;20277;-87
2023/09/04 07:49:22;;;;;;;;;;;18.50;81.10;;;;;;4111369;28;19937;-86
2023/09/04 07:51:23;;;;;;;;;;;18.60;81.60;;;;;;4115833;28;19918;-87
2023/09/04 07:53:23;;;;;;;;;;;18.60;81.30;;;;;;4129959;28;19922;-86
2023/09/04 07:55:24;;;;;;;;;;;18.80;81.00;;;;;;4123202;28;19952;-87
2023/09/04 07:57:24;;;;;;;;;;;18.80;81.20;;;;;;4114463;28;20360;-87
2023/09/04 07:59:25;;;;;;;;;;;18.80;80.20;;;;;;4127173;28;20411;-87
2023/09/04 08:01:30;;;;;;;;;;;19.00;80.30;;;;;;4110510;28;19960;-87
2023/09/04 08:03:30;;;;;;;;;;;19.00;79.90;;;;;;4110706;28;19956;-86
2023/09/04 08:05:31;;;;;;;;;;;19.00;78.80;;;;;;4110373;28;20315;-87
2023/09/04 08:07:32;;;;;;;;;;;19.10;79.20;;;;;;4112235;28;19985;-87
2023/09/04 08:09:32;;;;;;;;;;;19.10;78.90;;;;;;4114776;28;19973;-86
2023/09/04 08:11:34;;;;;;;;;;;19.20;78.80;;;;;;4131443;28;20038;-87
2023/09/04 08:13:34;;;;;;;;;;;19.30;78.60;;;;;;4132081;28;19945;-87
2023/09/04 08:15:35;;;;;;;;;;;19.30;78.30;;;;;;4145210;28;19926;-86
2023/09/04 08:17:35;;;;;;;;;;;19.40;78.00;;;;;;4117521;28;19910;-87
2023/09/04 08:19:36;;;;;;;;;;;19.50;77.90;;;;;;4112449;28;19910;-87
2023/09/04 08:21:37;;;;;;;;;;;19.50;76.80;;;;;;4108116;28;19914;-87
2023/09/04 08:23:37;;;;;;;;;;;19.60;76.80;;;;;;4110690;28;19926;-86
2023/09/04 08:25:38;;;;;;;;;;;19.60;76.60;;;;;;4123688;28;19921;-87
2023/09/04 08:27:38;;;;;;;;;;;19.70;76.50;;;;;;4125123;28;19953;-87
2023/09/04 08:29:39;;;;;;;;;;;19.80;76.20;;;;;;4109268;28;20391;-87
2023/09/04 08:31:40;;;;;;;;;;;19.90;75.70;;;;;;4108365;28;19917;-87
2023/09/04 08:33:40;;;;;;;;;;;19.90;75.60;;;;;;4111889;28;19917;-87
2023/09/04 08:35:41;;;;;;;;;;;19.90;74.80;;;;;;4106516;28;19918;-87
2023/09/04 08:37:42;;;;;;;;;;;20.00;74.60;;;;;;4111082;28;20279;-88
2023/09/04 08:39:42;;;;;;;;;;;20.10;74.40;;;;;;4094428;28;20262;-88
2023/09/04 08:41:45;;;;;;;;;;;20.20;74.70;;;;;;4110574;28;20156;-88
2023/09/04 08:43:47;;;;;;;;;;;20.20;74.20;;;;;;4111363;28;19914;-88
2023/09/04 08:45:48;;;;;;;;;;;20.20;74.20;;;;;;4109087;28;19990;-88
2023/09/04 08:47:49;;;;;;;;;;;20.30;73.50;;;;;;4111677;28;19910;-87
2023/09/04 08:49:54;;;;;;;;;;;20.40;73.50;;;;;;4111389;28;19925;-87
2023/09/04 08:51:56;;;;;;;;;;;20.40;73.60;;;;;;4125646;28;19918;-88
2023/09/04 08:53:57;;;;;;;;;;;20.50;73.30;;;;;;4111239;28;20012;-87
2023/09/04 08:55:58;;;;;;;;;;;20.60;73.10;;;;;;4107922;28;19918;-88
2023/09/04 08:57:59;;;;;;;;;;;20.60;72.40;;;;;;4144078;22;19934;-85
2023/09/04 09:00:00;;;;;;;;;;;20.70;71.70;;;;;;4125392;28;20391;-84
2023/09/04 09:02:04;;;;;;;;;;;20.70;72.00;;;;;;4127641;28;19917;-86
2023/09/04 09:04:05;;;;;;;;;;;20.80;71.10;;;;;;4129819;28;20102;-83
2023/09/04 09:06:05;;;;;;;;;;;20.90;71.60;;;;;;4126787;28;19925;-83
2023/09/04 09:08:07;;;;;;;;;;;21.00;71.00;;;;;;4132053;28;19914;-84
2023/09/04 09:10:14;;;;;;;;;;;21.00;69.70;;;;;;4111151;28;21266;-84
2023/09/04 09:12:14;;;;;;;;;;;21.00;68.50;;;;;;4125273;28;19918;-84
2023/09/04 09:14:15;;;;;;;;;;;21.10;67.60;;;;;;4109923;28;19910;-84
2023/09/04 09:16:22;;;;;;;;;;;21.10;68.90;;;;;;4110797;28;19960;-84
2023/09/04 09:18:36;;;;;;;;;;;21.20;69.40;;;;;;4116017;28;19945;-85
2023/09/04 09:20:39;;;;;;;;;;;21.20;69.10;;;;;;4108561;28;19941;-84
2023/09/04 09:22:49;;;;;;;;;;;21.30;69.20;;;;;;4115406;28;20332;-84
2023/09/04 09:24:56;;;;;;;;;;;21.30;68.70;;;;;;4112994;28;19997;-85
2023/09/04 09:26:56;;;;;;;;;;;21.40;68.30;;;;;;4128605;28;19917;-83
2023/09/04 09:28:57;;;;;;;;;;;21.50;68.10;;;;;;4115157;28;19969;-84
2023/09/04 09:30:58;;;;;;;;;;;21.50;68.50;;;;;;4125353;28;20005;-83
2023/09/04 09:33:07;;;;;;;;;;;21.50;66.20;;;;;;4113431;28;20262;-84
2023/09/04 09:35:09;;;;;;;;;;;21.60;66.90;;;;;;4107090;28;19948;-83
2023/09/04 09:37:10;;;;;;;;;;;21.70;67.30;;;;;;4124104;28;20416;-85
2023/09/04 09:39:11;;;;;;;;;;;21.70;66.80;;;;;;4109871;28;19953;-83
2023/09/04 09:41:15;;;;;;;;;;;21.80;66.80;;;;;;4098062;28;19973;-83
2023/09/04 09:43:16;;;;;;;;;;;21.80;66.80;;;;;;4115865;28;19914;-83
2023/09/04 09:45:17;;;;;;;;;;;21.90;66.40;;;;;;4110138;28;19930;-86
2023/09/04 09:47:18;;;;;;;;;;;21.90;65.60;;;;;;4112488;28;19985;-84
2023/09/04 09:49:19;;;;;;;;;;;22.00;65.00;;;;;;4096148;28;19914;-86
2023/09/04 09:51:23;;;;;;;;;;;22.00;65.30;;;;;;4113345;28;19921;-83
2023/09/04 09:53:23;;;;;;;;;;;22.10;65.00;;;;;;4118107;28;19977;-86
2023/09/04 09:55:29;;;;;;;;;;;22.10;62.90;;;;;;4127684;28;19925;-83
2023/09/04 09:57:30;;;;;;;;;;;22.10;63.30;;;;;;4111375;28;20034;-87
2023/09/04 09:59:32;;;;;;;;;;;22.10;63.50;;;;;;4116583;28;19914;-83
2023/09/04 10:01:39;;;;;;;;;;;22.20;63.90;;;;;;4111749;28;20310;-84
2023/09/04 10:03:39;;;;;;;;;;;22.20;64.10;;;;;;4130183;28;19910;-83
2023/09/04 10:05:41;;;;;;;;;;;22.30;63.70;;;;;;4109558;28;20437;-85
2023/09/04 10:07:43;;;;;;;;;;;22.30;62.30;;;;;;4112704;28;20403;-84
2023/09/04 10:09:45;;;;;;;;;;;22.40;62.20;;;;;;4114849;28;20275;-83
2023/09/04 10:11:47;;;;;;;;;;;22.40;62.50;;;;;;4113502;28;19914;-84
2023/09/04 10:13:54;;;;;;;;;;;22.50;61.00;;;;;;4111090;28;20013;-85
2023/09/04 10:15:57;;;;;;;;;;;22.50;61.10;;;;;;4111628;28;19917;-86
2023/09/04 10:18:05;;;;;;;;;;;22.50;61.10;;;;;;4108226;28;19918;-85
2023/09/04 10:20:06;;;;;;;;;;;22.50;61.20;;;;;;4108757;28;20315;-84
2023/09/04 10:22:11;;;;;;;;;;;22.60;61.20;;;;;;4115209;28;19923;-83
2023/09/04 10:24:13;;;;;;;;;;;22.60;61.80;;;;;;4100295;28;19910;-84
2023/09/04 10:26:21;;;;;;;;;;;22.60;61.50;;;;;;4129197;28;20457;-85
2023/09/04 10:28:31;;;;;;;;;;;22.70;61.00;;;;;;4120297;28;19918;-86
2023/09/04 10:30:36;;;;;;;;;;;22.80;59.80;;;;;;4117341;28;19971;-84
2023/09/04 10:32:36;;;;;;;;;;;22.80;60.50;;;;;;4117609;28;19925;-84
2023/09/04 10:34:40;;;;;;;;;;;22.80;60.10;;;;;;4137313;28;19914;-83
2023/09/04 10:36:40;;;;;;;;;;;22.90;59.80;;;;;;4116003;28;19941;-85
2023/09/04 10:38:41;;;;;;;;;;;22.90;59.90;;;;;;4119549;28;20356;-83
2023/09/04 10:40:42;;;;;;;;;;;22.90;59.80;;;;;;4108509;28;19996;-86
2023/09/04 10:42:44;;;;;;;;;;;23.00;59.80;;;;;;4114422;28;19973;-84
2023/09/04 10:44:45;;;;;;;;;;;23.10;58.70;;;;;;4123654;28;19914;-85
2023/09/04 10:46:54;;;;;;;;;;;23.10;59.20;;;;;;4116642;28;20299;-83
2023/09/04 10:48:55;;;;;;;;;;;23.10;59.40;;;;;;4120047;28;19977;-85
2023/09/04 10:50:55;;;;;;;;;;;23.20;58.30;;;;;;4115953;28;19918;-84
2023/09/04 10:52:57;;;;;;;;;;;23.10;57.00;;;;;;4122257;28;20012;-83
2023/09/04 10:55:15;;;;;;;;;;;23.10;54.70;;;;;;4119807;28;19910;-84
2023/09/04 10:57:16;;;;;;;;;;;23.20;55.60;;;;;;4121100;28;19992;-84
2023/09/04 10:59:55;;;;;;;;;;;23.20;54.70;;;;;;4118938;28;19922;-83
2023/09/04 11:02:32;;;;;;;;;;;23.30;53.80;;;;;;4114129;28;19921;-86
2023/09/04 11:04:55;;;;;;;;;;;23.30;55.00;;;;;;4125870;28;19941;-84
2023/09/04 11:07:19;;;;;;;;;;;23.40;56.30;;;;;;4117966;28;20311;-86
2023/09/04 11:09:41;;;;;;;;;;;23.40;56.30;;;;;;4117552;28;19918;-83
2023/09/04 11:11:56;;;;;;;;;;;23.40;56.20;;;;;;4103042;28;19922;-83
2023/09/04 11:14:17;;;;;;;;;;;23.50;57.00;;;;;;4119649;28;20012;-84
2023/09/04 11:16:27;;;;;;;;;;;23.60;57.50;;;;;;4118177;28;19918;-83
2023/09/04 11:18:59;;;;;;;;;;;23.60;56.40;;;;;;4116324;28;19918;-83
2023/09/04 11:21:03;;;;;;;;;;;23.60;56.60;;;;;;4114161;28;19950;-84
2023/09/04 11:23:23;;;;;;;;;;;23.60;56.00;;;;;;4118601;28;20002;-83
2023/09/04 11:25:46;;;;;;;;;;;23.60;54.00;;;;;;4116304;28;19924;-84
2023/09/04 11:28:07;;;;;;;;;;;23.70;56.40;;;;;;4120404;28;19940;-83
2023/09/04 11:30:27;;;;;;;;;;;23.70;55.10;;;;;;4115980;28;19922;-86
2023/09/04 11:32:48;;;;;;;;;;;23.70;56.00;;;;;;4119947;28;19918;-83
2023/09/04 11:35:12;;;;;;;;;;;23.70;55.70;;;;;;4117096;28;20130;-84
2023/09/04 11:37:33;;;;;;;;;;;23.70;54.70;;;;;;4119060;28;20005;-84
2023/09/04 11:39:58;;;;;;;;;;;23.80;55.90;;;;;;4115437;28;20028;-86
2023/09/04 11:42:20;;;;;;;;;;;23.80;55.80;;;;;;4116146;28;19964;-84
2023/09/04 11:44:41;;;;;;;;;;;23.80;55.70;;;;;;4124255;28;19913;-85
2023/09/04 11:47:02;;;;;;;;;;;23.80;55.20;;;;;;4126009;28;19928;-83
2023/09/04 11:49:23;;;;;;;;;;;23.80;54.50;;;;;;4115816;28;19914;-84
2023/09/04 11:51:44;;;;;;;;;;;23.80;54.30;;;;;;4129014;28;20080;-83
2023/09/04 11:53:45;;;;;;;;;;;23.80;55.90;;;;;;4120902;28;20278;-85
2023/09/04 11:55:46;;;;;;;;;;;23.90;55.80;;;;;;4115248;28;20543;-84
2023/09/04 11:57:49;;;;;;;;;;;23.90;55.40;;;;;;4115188;28;20029;-84
2023/09/04 11:59:50;;;;;;;;;;;23.90;55.20;;;;;;4117705;28;20028;-84
2023/09/04 12:01:50;;;;;;;;;;;23.90;53.70;;;;;;4112357;28;20335;-86
2023/09/04 12:03:53;;;;;;;;;;;23.90;53.60;;;;;;4115880;28;19969;-83
2023/09/04 12:05:53;;;;;;;;;;;24.00;55.40;;;;;;4117366;28;19929;-85
2023/09/04 12:07:54;;;;;;;;;;;24.00;55.50;;;;;;4121604;28;19914;-83
2023/09/04 12:09:54;;;;;;;;;;;24.00;52.40;;;;;;4116735;28;19910;-84
2023/09/04 12:11:55;;;;;;;;;;;24.10;55.10;;;;;;4114730;28;20025;-84
2023/09/04 12:13:56;;;;;;;;;;;24.10;52.80;;;;;;4119024;28;19914;-86
2023/09/04 12:16:06;;;;;;;;;;;24.00;50.60;;;;;;4115055;28;19922;-84
2023/09/04 12:18:09;;;;;;;;;;;24.10;52.10;;;;;;4116658;28;19961;-82
2023/09/04 12:20:16;;;;;;;;;;;24.10;51.80;;;;;;4131439;28;20166;-85
2023/09/04 12:22:17;;;;;;;;;;;24.10;50.90;;;;;;4116898;28;20051;-83
2023/09/04 12:24:18;;;;;;;;;;;24.20;52.20;;;;;;4104015;28;20493;-84
2023/09/04 12:26:19;;;;;;;;;;;24.10;53.00;;;;;;4113572;28;19922;-83
2023/09/04 12:28:20;;;;;;;;;;;24.20;53.40;;;;;;4106106;28;19949;-83
2023/09/04 12:30:22;;;;;;;;;;;24.20;53.40;;;;;;4114153;28;19926;-85
2023/09/04 12:32:26;;;;;;;;;;;24.20;52.70;;;;;;4119810;28;19914;-84
2023/09/04 12:34:27;;;;;;;;;;;24.20;52.50;;;;;;4108636;28;19945;-83